sensor_id;sensor_type;location;lat;lon;timestamp;temperature;humidity
1129;DHT22;553;51.038;7.216;2023-04-03T00:00:35;2.90;99.90
1129;DHT22;553;51.038;7.216;2023-04-03T00:03:02;2.90;99.90
1129;DHT22;553;51.038;7.216;2023-04-03T00:05:29;2.90;99.90
1129;DHT22;553;51.038;7.216;2023-04-03T00:07:56;3.00;99.90
1129;DHT22;553;51.038;7.216;2023-04-03T00:10:23;3.00;99.90
1129;DHT22;553;51.038;7.216;2023-04-03T00:12:49;3.00;99.90
1129;DHT22;553;51.038;7.216;2023-04-03T00:15:16;3.00;99.90
1129;DHT22;553;51.038;7.216;2023-04-03T00:17:43;3.00;99.90
1129;DHT22;553;51.038;7.216;2023-04-03T00:20:10;3.10;99.90
1129;DHT22;553;51.038;7.216;2023-04-03T00:22:36;3.00;99.90
1129;DHT22;553;51.038;7.216;2023-04-03T00:25:04;3.10;99.90
1129;DHT22;553;51.038;7.216;2023-04-03T00:27:31;3.00;99.90
1129;DHT22;553;51.038;7.216;2023-04-03T00:29:57;3.00;99.90
1129;DHT22;553;51.038;7.216;2023-04-03T00:32:24;3.00;99.90
1129;DHT22;553;51.038;7.216;2023-04-03T00:34:51;2.90;99.90
1129;DHT22;553;51.038;7.216;2023-04-03T00:37:18;2.90;99.90
1129;DHT22;553;51.038;7.216;2023-04-03T00:39:44;2.90;99.90
1129;DHT22;553;51.038;7.216;2023-04-03T00:42:12;2.90;99.90
1129;DHT22;553;51.038;7.216;2023-04-03T00:47:08;2.80;99.90
1129;DHT22;553;51.038;7.216;2023-04-03T00:49:36;2.90;99.90
1129;DHT22;553;51.038;7.216;2023-04-03T00:52:04;2.90;99.90
1129;DHT22;553;51.038;7.216;2023-04-03T00:54:35;3.00;99.90
1129;DHT22;553;51.038;7.216;2023-04-03T00:57:03;3.10;99.90
1129;DHT22;553;51.038;7.216;2023-04-03T00:59:35;3.10;99.90
1129;DHT22;553;51.038;7.216;2023-04-03T01:02:02;3.00;99.90
1129;DHT22;553;51.038;7.216;2023-04-03T01:04:38;3.10;99.90
1129;DHT22;553;51.038;7.216;2023-04-03T01:07:17;3.10;99.90
1129;DHT22;553;51.038;7.216;2023-04-03T01:09:45;3.10;99.90
1129;DHT22;553;51.038;7.216;2023-04-03T01:12:20;3.00;99.90
1129;DHT22;553;51.038;7.216;2023-04-03T01:14:54;3.00;99.90
1129;DHT22;553;51.038;7.216;2023-04-03T01:17:30;3.10;99.90
1129;DHT22;553;51.038;7.216;2023-04-03T01:25:45;3.10;99.90
1129;DHT22;553;51.038;7.216;2023-04-03T01:33:26;3.10;99.90
1129;DHT22;553;51.038;7.216;2023-04-03T01:35:53;3.10;99.90
1129;DHT22;553;51.038;7.216;2023-04-03T01:38:20;3.00;99.90
1129;DHT22;553;51.038;7.216;2023-04-03T01:40:47;3.00;99.90
1129;DHT22;553;51.038;7.216;2023-04-03T01:43:14;3.00;99.90
1129;DHT22;553;51.038;7.216;2023-04-03T01:45:41;3.00;99.90
1129;DHT22;553;51.038;7.216;2023-04-03T01:48:08;3.00;99.90
1129;DHT22;553;51.038;7.216;2023-04-03T01:50:36;2.90;99.90
1129;DHT22;553;51.038;7.216;2023-04-03T01:53:03;2.80;99.90
1129;DHT22;553;51.038;7.216;2023-04-03T01:55:30;2.90;99.90
1129;DHT22;553;51.038;7.216;2023-04-03T01:57:57;2.90;99.90
1129;DHT22;553;51.038;7.216;2023-04-03T02:00:24;2.80;99.90
1129;DHT22;553;51.038;7.216;2023-04-03T02:02:51;2.80;99.90
1129;DHT22;553;51.038;7.216;2023-04-03T02:05:17;2.90;99.90
1129;DHT22;553;51.038;7.216;2023-04-03T02:07:45;2.80;99.90
1129;DHT22;553;51.038;7.216;2023-04-03T02:10:13;2.80;99.90
1129;DHT22;553;51.038;7.216;2023-04-03T02:12:41;2.80;99.90
1129;DHT22;553;51.038;7.216;2023-04-03T02:15:08;2.80;99.90
1129;DHT22;553;51.038;7.216;2023-04-03T02:17:35;2.80;99.90
1129;DHT22;553;51.038;7.216;2023-04-03T02:20:03;2.80;99.90
1129;DHT22;553;51.038;7.216;2023-04-03T02:22:32;2.70;99.90
1129;DHT22;553;51.038;7.216;2023-04-03T02:24:59;2.70;99.90
1129;DHT22;553;51.038;7.216;2023-04-03T02:27:26;2.60;99.90
1129;DHT22;553;51.038;7.216;2023-04-03T02:29:53;2.60;99.90
1129;DHT22;553;51.038;7.216;2023-04-03T02:32:19;2.60;99.90
1129;DHT22;553;51.038;7.216;2023-04-03T02:34:47;2.60;99.90
1129;DHT22;553;51.038;7.216;2023-04-03T02:37:14;2.60;99.90
1129;DHT22;553;51.038;7.216;2023-04-03T02:39:43;2.50;99.90
1129;DHT22;553;51.038;7.216;2023-04-03T02:42:10;2.50;99.90
1129;DHT22;553;51.038;7.216;2023-04-03T02:44:37;2.50;99.90
1129;DHT22;553;51.038;7.216;2023-04-03T02:47:05;2.40;99.90
1129;DHT22;553;51.038;7.216;2023-04-03T02:49:32;2.50;99.90
1129;DHT22;553;51.038;7.216;2023-04-03T02:51:59;2.40;99.90
1129;DHT22;553;51.038;7.216;2023-04-03T02:54:26;2.40;99.90
1129;DHT22;553;51.038;7.216;2023-04-03T02:56:58;2.40;99.90
1129;DHT22;553;51.038;7.216;2023-04-03T02:59:25;2.30;99.90
1129;DHT22;553;51.038;7.216;2023-04-03T03:01:52;2.40;99.90
1129;DHT22;553;51.038;7.216;2023-04-03T03:04:19;2.40;99.90
1129;DHT22;553;51.038;7.216;2023-04-03T03:06:46;2.40;99.90
1129;DHT22;553;51.038;7.216;2023-04-03T03:09:13;2.40;99.90
1129;DHT22;553;51.038;7.216;2023-04-03T03:11:41;2.50;99.90
1129;DHT22;553;51.038;7.216;2023-04-03T03:14:09;2.40;99.90
1129;DHT22;553;51.038;7.216;2023-04-03T03:16:35;2.30;99.90
1129;DHT22;553;51.038;7.216;2023-04-03T03:19:02;2.30;99.90
1129;DHT22;553;51.038;7.216;2023-04-03T03:21:29;2.30;99.90
1129;DHT22;553;51.038;7.216;2023-04-03T03:23:56;2.30;99.90
1129;DHT22;553;51.038;7.216;2023-04-03T03:26:23;2.20;99.90
1129;DHT22;553;51.038;7.216;2023-04-03T03:28:50;2.30;99.90
1129;DHT22;553;51.038;7.216;2023-04-03T03:31:16;2.20;99.90
1129;DHT22;553;51.038;7.216;2023-04-03T03:33:43;2.30;99.90
1129;DHT22;553;51.038;7.216;2023-04-03T03:36:10;2.30;99.90
1129;DHT22;553;51.038;7.216;2023-04-03T03:38:37;2.20;99.90
1129;DHT22;553;51.038;7.216;2023-04-03T03:41:04;2.20;99.90
1129;DHT22;553;51.038;7.216;2023-04-03T03:43:33;2.20;99.90
1129;DHT22;553;51.038;7.216;2023-04-03T03:45:59;2.10;99.90
1129;DHT22;553;51.038;7.216;2023-04-03T03:48:27;2.10;99.90
1129;DHT22;553;51.038;7.216;2023-04-03T03:50:54;2.10;99.90
1129;DHT22;553;51.038;7.216;2023-04-03T03:53:24;2.10;99.90
1129;DHT22;553;51.038;7.216;2023-04-03T03:55:54;2.20;99.90
1129;DHT22;553;51.038;7.216;2023-04-03T03:58:24;2.20;99.90
1129;DHT22;553;51.038;7.216;2023-04-03T04:00:51;2.20;99.90
1129;DHT22;553;51.038;7.216;2023-04-03T04:03:19;2.20;99.90
1129;DHT22;553;51.038;7.216;2023-04-03T04:05:47;2.20;99.90
1129;DHT22;553;51.038;7.216;2023-04-03T04:08:15;2.10;99.90
1129;DHT22;553;51.038;7.216;2023-04-03T04:10:43;2.10;99.90
1129;DHT22;553;51.038;7.216;2023-04-03T04:13:11;2.10;99.90
1129;DHT22;553;51.038;7.216;2023-04-03T04:15:39;2.10;99.90
1129;DHT22;553;51.038;7.216;2023-04-03T04:18:06;2.10;99.90
1129;DHT22;553;51.038;7.216;2023-04-03T04:20:33;2.10;99.90
1129;DHT22;553;51.038;7.216;2023-04-03T04:23:00;2.10;99.90
1129;DHT22;553;51.038;7.216;2023-04-03T04:25:28;2.00;99.90
1129;DHT22;553;51.038;7.216;2023-04-03T04:27:55;2.10;99.90
1129;DHT22;553;51.038;7.216;2023-04-03T04:30:21;2.00;99.90
1129;DHT22;553;51.038;7.216;2023-04-03T04:32:49;2.00;99.90
1129;DHT22;553;51.038;7.216;2023-04-03T04:35:17;1.90;99.90
1129;DHT22;553;51.038;7.216;2023-04-03T04:37:46;1.90;99.90
1129;DHT22;553;51.038;7.216;2023-04-03T04:40:14;1.90;99.90
1129;DHT22;553;51.038;7.216;2023-04-03T04:42:41;1.90;99.90
1129;DHT22;553;51.038;7.216;2023-04-03T04:45:08;1.90;99.90
1129;DHT22;553;51.038;7.216;2023-04-03T04:47:36;1.80;99.90
1129;DHT22;553;51.038;7.216;2023-04-03T04:50:04;1.70;99.90
1129;DHT22;553;51.038;7.216;2023-04-03T04:52:32;1.80;99.90
1129;DHT22;553;51.038;7.216;2023-04-03T04:54:59;1.70;99.90
1129;DHT22;553;51.038;7.216;2023-04-03T04:57:26;1.70;99.90
1129;DHT22;553;51.038;7.216;2023-04-03T04:59:55;1.70;99.90
1129;DHT22;553;51.038;7.216;2023-04-03T05:02:22;1.60;99.90
1129;DHT22;553;51.038;7.216;2023-04-03T05:04:49;1.70;99.90
1129;DHT22;553;51.038;7.216;2023-04-03T05:07:21;1.60;99.90
1129;DHT22;553;51.038;7.216;2023-04-03T05:09:47;1.60;99.90
1129;DHT22;553;51.038;7.216;2023-04-03T05:12:16;1.60;99.90
1129;DHT22;553;51.038;7.216;2023-04-03T05:14:50;1.60;99.90
1129;DHT22;553;51.038;7.216;2023-04-03T05:17:17;1.60;99.90
1129;DHT22;553;51.038;7.216;2023-04-03T05:19:48;1.70;99.90
1129;DHT22;553;51.038;7.216;2023-04-03T05:22:19;1.70;99.90
1129;DHT22;553;51.038;7.216;2023-04-03T05:24:46;1.60;99.90
1129;DHT22;553;51.038;7.216;2023-04-03T05:27:14;1.70;99.90
1129;DHT22;553;51.038;7.216;2023-04-03T05:29:45;1.70;99.90
1129;DHT22;553;51.038;7.216;2023-04-03T05:32:16;1.70;99.90
1129;DHT22;553;51.038;7.216;2023-04-03T05:34:46;1.70;99.90
1129;DHT22;553;51.038;7.216;2023-04-03T05:37:13;1.80;99.90
1129;DHT22;553;51.038;7.216;2023-04-03T05:39:40;1.80;99.90
1129;DHT22;553;51.038;7.216;2023-04-03T05:42:09;1.80;99.90
1129;DHT22;553;51.038;7.216;2023-04-03T05:44:35;1.90;99.90
1129;DHT22;553;51.038;7.216;2023-04-03T05:47:03;1.90;99.90
1129;DHT22;553;51.038;7.216;2023-04-03T05:49:31;2.00;99.90
1129;DHT22;553;51.038;7.216;2023-04-03T05:51:57;2.00;99.90
1129;DHT22;553;51.038;7.216;2023-04-03T05:54:29;2.10;99.90
1129;DHT22;553;51.038;7.216;2023-04-03T05:57:23;2.20;99.90
1129;DHT22;553;51.038;7.216;2023-04-03T05:59:50;2.40;99.90
1129;DHT22;553;51.038;7.216;2023-04-03T06:02:21;2.70;99.90
1129;DHT22;553;51.038;7.216;2023-04-03T06:04:49;2.90;99.80
1129;DHT22;553;51.038;7.216;2023-04-03T06:07:19;3.20;99.40
1129;DHT22;553;51.038;7.216;2023-04-03T06:09:50;3.50;98.20
1129;DHT22;553;51.038;7.216;2023-04-03T06:12:18;3.80;97.30
1129;DHT22;553;51.038;7.216;2023-04-03T06:14:45;4.00;96.50
1129;DHT22;553;51.038;7.216;2023-04-03T06:17:14;4.30;96.10
1129;DHT22;553;51.038;7.216;2023-04-03T06:19:41;4.50;95.00
1129;DHT22;553;51.038;7.216;2023-04-03T06:22:09;4.60;94.20
1129;DHT22;553;51.038;7.216;2023-04-03T06:24:35;4.70;94.40
1129;DHT22;553;51.038;7.216;2023-04-03T06:27:02;4.70;94.00
1129;DHT22;553;51.038;7.216;2023-04-03T06:29:29;4.70;93.70
1129;DHT22;553;51.038;7.216;2023-04-03T06:31:56;4.60;94.00
1129;DHT22;553;51.038;7.216;2023-04-03T06:34:23;4.50;94.50
1129;DHT22;553;51.038;7.216;2023-04-03T06:36:50;4.50;95.00
1129;DHT22;553;51.038;7.216;2023-04-03T06:39:20;4.40;94.50
1129;DHT22;553;51.038;7.216;2023-04-03T06:41:49;4.30;95.20
1129;DHT22;553;51.038;7.216;2023-04-03T06:44:17;4.30;95.30
1129;DHT22;553;51.038;7.216;2023-04-03T06:46:45;4.30;95.80
1129;DHT22;553;51.038;7.216;2023-04-03T06:49:13;4.20;94.90
1129;DHT22;553;51.038;7.216;2023-04-03T06:51:40;4.10;95.50
1129;DHT22;553;51.038;7.216;2023-04-03T06:54:07;4.00;96.20
1129;DHT22;553;51.038;7.216;2023-04-03T06:56:35;4.10;96.90
1129;DHT22;553;51.038;7.216;2023-04-03T06:59:02;4.10;96.50
1129;DHT22;553;51.038;7.216;2023-04-03T07:01:29;4.10;96.40
1129;DHT22;553;51.038;7.216;2023-04-03T07:03:58;4.10;96.20
1129;DHT22;553;51.038;7.216;2023-04-03T07:06:24;4.10;96.20
1129;DHT22;553;51.038;7.216;2023-04-03T07:08:54;4.10;96.10
1129;DHT22;553;51.038;7.216;2023-04-03T07:11:21;4.10;95.70
1129;DHT22;553;51.038;7.216;2023-04-03T07:13:49;4.00;94.50
1129;DHT22;553;51.038;7.216;2023-04-03T07:16:16;3.90;95.10
1129;DHT22;553;51.038;7.216;2023-04-03T07:18:43;3.80;95.00
1129;DHT22;553;51.038;7.216;2023-04-03T07:21:09;3.80;94.70
1129;DHT22;553;51.038;7.216;2023-04-03T07:23:37;3.80;94.60
1129;DHT22;553;51.038;7.216;2023-04-03T07:26:03;3.80;95.60
1129;DHT22;553;51.038;7.216;2023-04-03T07:28:30;4.00;95.60
1129;DHT22;553;51.038;7.216;2023-04-03T07:31:05;4.10;94.50
1129;DHT22;553;51.038;7.216;2023-04-03T07:33:35;4.30;94.40
1129;DHT22;553;51.038;7.216;2023-04-03T07:36:04;4.60;93.10
1129;DHT22;553;51.038;7.216;2023-04-03T07:38:34;5.30;93.60
1129;DHT22;553;51.038;7.216;2023-04-03T07:41:02;5.40;90.80
1129;DHT22;553;51.038;7.216;2023-04-03T07:43:30;5.50;90.20
1129;DHT22;553;51.038;7.216;2023-04-03T07:45:56;5.60;89.70
1129;DHT22;553;51.038;7.216;2023-04-03T07:48:25;5.90;89.00
1129;DHT22;553;51.038;7.216;2023-04-03T07:50:52;6.10;88.40
1129;DHT22;553;51.038;7.216;2023-04-03T07:53:19;6.30;87.20
1129;DHT22;553;51.038;7.216;2023-04-03T07:55:46;6.60;85.90
1129;DHT22;553;51.038;7.216;2023-04-03T07:58:15;6.80;85.80
1129;DHT22;553;51.038;7.216;2023-04-03T08:00:42;6.90;85.20
1129;DHT22;553;51.038;7.216;2023-04-03T08:03:10;7.10;84.90
1129;DHT22;553;51.038;7.216;2023-04-03T08:05:42;7.30;83.60
1129;DHT22;553;51.038;7.216;2023-04-03T08:08:11;7.30;83.50
1129;DHT22;553;51.038;7.216;2023-04-03T08:10:38;7.40;83.00
1129;DHT22;553;51.038;7.216;2023-04-03T08:13:05;7.60;82.70
1129;DHT22;553;51.038;7.216;2023-04-03T08:15:32;7.50;81.40
1129;DHT22;553;51.038;7.216;2023-04-03T08:17:59;7.70;82.60
1129;DHT22;553;51.038;7.216;2023-04-03T08:20:27;8.10;82.10
1129;DHT22;553;51.038;7.216;2023-04-03T08:22:54;8.40;82.20
1129;DHT22;553;51.038;7.216;2023-04-03T08:25:21;8.70;79.80
1129;DHT22;553;51.038;7.216;2023-04-03T08:27:48;8.70;78.70
1129;DHT22;553;51.038;7.216;2023-04-03T08:30:15;8.70;78.20
1129;DHT22;553;51.038;7.216;2023-04-03T08:32:42;8.60;75.50
1129;DHT22;553;51.038;7.216;2023-04-03T08:35:10;8.70;73.40
1129;DHT22;553;51.038;7.216;2023-04-03T08:37:38;8.60;71.80
1129;DHT22;553;51.038;7.216;2023-04-03T08:40:07;8.50;71.40
1129;DHT22;553;51.038;7.216;2023-04-03T08:48:05;8.30;70.50
1129;DHT22;553;51.038;7.216;2023-04-03T08:50:38;8.30;69.20
1129;DHT22;553;51.038;7.216;2023-04-03T08:53:06;8.20;70.30
1129;DHT22;553;51.038;7.216;2023-04-03T08:55:41;8.70;73.10
1129;DHT22;553;51.038;7.216;2023-04-03T08:58:19;8.70;71.60
1129;DHT22;553;51.038;7.216;2023-04-03T09:01:05;8.90;71.50
1129;DHT22;553;51.038;7.216;2023-04-03T09:03:39;8.90;73.00
1129;DHT22;553;51.038;7.216;2023-04-03T09:06:18;9.20;73.10
1129;DHT22;553;51.038;7.216;2023-04-03T09:14:22;9.00;71.40
1129;DHT22;553;51.038;7.216;2023-04-03T09:16:59;9.00;72.00
1129;DHT22;553;51.038;7.216;2023-04-03T09:22:24;9.20;70.90
1129;DHT22;553;51.038;7.216;2023-04-03T09:25:02;9.40;70.50
1129;DHT22;553;51.038;7.216;2023-04-03T09:27:30;9.50;70.80
1129;DHT22;553;51.038;7.216;2023-04-03T09:29:58;9.40;71.10
1129;DHT22;553;51.038;7.216;2023-04-03T09:32:33;9.50;71.00
1129;DHT22;553;51.038;7.216;2023-04-03T09:35:04;9.40;70.10
1129;DHT22;553;51.038;7.216;2023-04-03T09:37:50;9.20;70.20
1129;DHT22;553;51.038;7.216;2023-04-03T09:40:28;9.10;69.50
1129;DHT22;553;51.038;7.216;2023-04-03T09:42:57;9.10;71.80
1129;DHT22;553;51.038;7.216;2023-04-03T09:45:31;9.10;70.40
1129;DHT22;553;51.038;7.216;2023-04-03T09:53:31;9.00;69.70
1129;DHT22;553;51.038;7.216;2023-04-03T09:56:00;9.10;71.00
1129;DHT22;553;51.038;7.216;2023-04-03T09:58:32;9.40;70.40
1129;DHT22;553;51.038;7.216;2023-04-03T10:06:32;9.40;68.10
1129;DHT22;553;51.038;7.216;2023-04-03T10:09:02;9.60;68.30
1129;DHT22;553;51.038;7.216;2023-04-03T10:11:31;9.40;68.00
1129;DHT22;553;51.038;7.216;2023-04-03T10:14:00;9.60;67.90
1129;DHT22;553;51.038;7.216;2023-04-03T10:19:09;9.40;68.10
1129;DHT22;553;51.038;7.216;2023-04-03T10:21:51;9.50;68.40
1129;DHT22;553;51.038;7.216;2023-04-03T10:24:28;9.90;67.30
1129;DHT22;553;51.038;7.216;2023-04-03T10:27:18;9.60;66.70
1129;DHT22;553;51.038;7.216;2023-04-03T10:30:14;9.70;68.60
1129;DHT22;553;51.038;7.216;2023-04-03T10:33:01;9.90;64.60
1129;DHT22;553;51.038;7.216;2023-04-03T10:35:37;9.90;64.20
1129;DHT22;553;51.038;7.216;2023-04-03T10:38:31;10.00;63.90
1129;DHT22;553;51.038;7.216;2023-04-03T10:41:10;9.50;63.40
1129;DHT22;553;51.038;7.216;2023-04-03T10:43:42;9.40;63.60
1129;DHT22;553;51.038;7.216;2023-04-03T10:54:43;9.50;63.30
1129;DHT22;553;51.038;7.216;2023-04-03T10:57:11;9.50;62.60
1129;DHT22;553;51.038;7.216;2023-04-03T10:59:50;9.60;63.60
1129;DHT22;553;51.038;7.216;2023-04-03T11:02:25;9.70;62.50
1129;DHT22;553;51.038;7.216;2023-04-03T11:05:01;9.50;62.00
1129;DHT22;553;51.038;7.216;2023-04-03T11:07:39;9.50;63.30
1129;DHT22;553;51.038;7.216;2023-04-03T11:10:25;9.60;61.90
1129;DHT22;553;51.038;7.216;2023-04-03T11:13:04;9.80;62.50
1129;DHT22;553;51.038;7.216;2023-04-03T11:15:33;9.50;61.20
1129;DHT22;553;51.038;7.216;2023-04-03T11:18:11;9.60;60.20
1129;DHT22;553;51.038;7.216;2023-04-03T11:20:43;9.80;60.80
1129;DHT22;553;51.038;7.216;2023-04-03T11:23:26;10.00;60.80
1129;DHT22;553;51.038;7.216;2023-04-03T11:26:13;9.90;60.10
1129;DHT22;553;51.038;7.216;2023-04-03T11:28:42;9.90;60.00
1129;DHT22;553;51.038;7.216;2023-04-03T11:31:33;9.90;60.20
1129;DHT22;553;51.038;7.216;2023-04-03T11:34:33;9.70;60.50
1129;DHT22;553;51.038;7.216;2023-04-03T11:37:06;10.10;62.90
1129;DHT22;553;51.038;7.216;2023-04-03T11:39:38;10.10;59.90
1129;DHT22;553;51.038;7.216;2023-04-03T11:42:33;10.10;57.70
1129;DHT22;553;51.038;7.216;2023-04-03T11:47:59;9.70;59.20
1129;DHT22;553;51.038;7.216;2023-04-03T11:58:10;10.10;57.70
1129;DHT22;553;51.038;7.216;2023-04-03T12:14:03;9.90;59.40
1129;DHT22;553;51.038;7.216;2023-04-03T12:19:31;9.90;60.50
1129;DHT22;553;51.038;7.216;2023-04-03T12:22:10;10.30;60.40
1129;DHT22;553;51.038;7.216;2023-04-03T12:24:39;10.00;59.20
1129;DHT22;553;51.038;7.216;2023-04-03T12:27:33;9.90;60.90
1129;DHT22;553;51.038;7.216;2023-04-03T12:30:16;10.30;63.20
1129;DHT22;553;51.038;7.216;2023-04-03T12:35:44;10.30;60.40
1129;DHT22;553;51.038;7.216;2023-04-03T12:46:58;10.20;63.10
1129;DHT22;553;51.038;7.216;2023-04-03T12:51:55;10.10;60.50
1129;DHT22;553;51.038;7.216;2023-04-03T12:54:38;9.90;61.30
1129;DHT22;553;51.038;7.216;2023-04-03T12:57:17;9.90;61.00
1129;DHT22;553;51.038;7.216;2023-04-03T12:59:44;10.00;61.60
1129;DHT22;553;51.038;7.216;2023-04-03T13:02:30;10.10;61.80
1129;DHT22;553;51.038;7.216;2023-04-03T13:05:06;10.10;60.40
1129;DHT22;553;51.038;7.216;2023-04-03T13:07:36;10.00;62.90
1129;DHT22;553;51.038;7.216;2023-04-03T13:12:45;9.90;63.70
1129;DHT22;553;51.038;7.216;2023-04-03T13:17:44;10.10;63.70
1129;DHT22;553;51.038;7.216;2023-04-03T13:20:33;10.00;62.90
1129;DHT22;553;51.038;7.216;2023-04-03T13:23:05;9.70;62.80
1129;DHT22;553;51.038;7.216;2023-04-03T13:25:39;9.70;62.50
1129;DHT22;553;51.038;7.216;2023-04-03T13:28:09;9.80;62.00
1129;DHT22;553;51.038;7.216;2023-04-03T13:30:55;9.70;62.40
1129;DHT22;553;51.038;7.216;2023-04-03T13:33:25;9.80;63.00
1129;DHT22;553;51.038;7.216;2023-04-03T13:36:29;9.80;62.40
1129;DHT22;553;51.038;7.216;2023-04-03T13:39:06;9.90;64.20
1129;DHT22;553;51.038;7.216;2023-04-03T13:41:39;9.90;63.60
1129;DHT22;553;51.038;7.216;2023-04-03T13:46:51;10.00;65.00
1129;DHT22;553;51.038;7.216;2023-04-03T13:49:39;9.90;63.20
1129;DHT22;553;51.038;7.216;2023-04-03T13:52:24;9.70;63.30
1129;DHT22;553;51.038;7.216;2023-04-03T13:54:59;9.80;62.30
1129;DHT22;553;51.038;7.216;2023-04-03T13:57:28;9.80;63.60
1129;DHT22;553;51.038;7.216;2023-04-03T13:59:55;10.00;64.10
1129;DHT22;553;51.038;7.216;2023-04-03T14:02:30;10.10;63.40
1129;DHT22;553;51.038;7.216;2023-04-03T14:04:59;10.20;63.50
1129;DHT22;553;51.038;7.216;2023-04-03T14:07:29;10.20;62.40
1129;DHT22;553;51.038;7.216;2023-04-03T14:09:57;10.10;61.70
1129;DHT22;553;51.038;7.216;2023-04-03T14:12:31;10.00;62.60
1129;DHT22;553;51.038;7.216;2023-04-03T14:15:16;9.90;62.50
1129;DHT22;553;51.038;7.216;2023-04-03T14:17:43;9.70;64.00
1129;DHT22;553;51.038;7.216;2023-04-03T14:20:15;9.80;64.00
1129;DHT22;553;51.038;7.216;2023-04-03T14:22:43;9.90;64.50
1129;DHT22;553;51.038;7.216;2023-04-03T14:25:10;10.10;64.20
1129;DHT22;553;51.038;7.216;2023-04-03T14:27:42;10.10;63.30
1129;DHT22;553;51.038;7.216;2023-04-03T14:30:17;10.00;63.30
1129;DHT22;553;51.038;7.216;2023-04-03T14:32:44;9.90;64.30
1129;DHT22;553;51.038;7.216;2023-04-03T14:35:11;9.80;64.50
1129;DHT22;553;51.038;7.216;2023-04-03T14:37:38;10.10;68.50
1129;DHT22;553;51.038;7.216;2023-04-03T14:40:07;9.90;64.60
1129;DHT22;553;51.038;7.216;2023-04-03T14:42:36;9.70;64.60
1129;DHT22;553;51.038;7.216;2023-04-03T14:45:07;9.80;65.40
1129;DHT22;553;51.038;7.216;2023-04-03T14:47:39;9.90;65.60
1129;DHT22;553;51.038;7.216;2023-04-03T14:50:11;9.90;64.60
1129;DHT22;553;51.038;7.216;2023-04-03T14:52:39;11.20;73.30
1129;DHT22;553;51.038;7.216;2023-04-03T14:55:08;10.80;64.10
1129;DHT22;553;51.038;7.216;2023-04-03T14:57:37;10.50;65.30
1129;DHT22;553;51.038;7.216;2023-04-03T15:00:06;10.30;65.80
1129;DHT22;553;51.038;7.216;2023-04-03T15:02:37;10.10;65.40
1129;DHT22;553;51.038;7.216;2023-04-03T15:05:08;10.00;65.70
1129;DHT22;553;51.038;7.216;2023-04-03T15:07:45;9.70;65.50
1129;DHT22;553;51.038;7.216;2023-04-03T15:10:18;9.50;65.70
1129;DHT22;553;51.038;7.216;2023-04-03T15:12:45;9.60;66.70
1129;DHT22;553;51.038;7.216;2023-04-03T15:15:14;9.40;66.50
1129;DHT22;553;51.038;7.216;2023-04-03T15:17:41;9.50;66.80
1129;DHT22;553;51.038;7.216;2023-04-03T15:20:18;9.50;66.40
1129;DHT22;553;51.038;7.216;2023-04-03T15:22:46;9.40;66.30
1129;DHT22;553;51.038;7.216;2023-04-03T15:25:13;9.30;65.00
1129;DHT22;553;51.038;7.216;2023-04-03T15:27:40;9.30;65.70
1129;DHT22;553;51.038;7.216;2023-04-03T15:30:11;9.50;65.60
1129;DHT22;553;51.038;7.216;2023-04-03T15:32:39;9.60;65.70
1129;DHT22;553;51.038;7.216;2023-04-03T15:35:06;9.60;66.70
1129;DHT22;553;51.038;7.216;2023-04-03T15:37:33;9.70;67.20
1129;DHT22;553;51.038;7.216;2023-04-03T15:40:00;9.70;67.30
1129;DHT22;553;51.038;7.216;2023-04-03T15:42:28;9.60;66.40
1129;DHT22;553;51.038;7.216;2023-04-03T15:44:54;9.50;66.70
1129;DHT22;553;51.038;7.216;2023-04-03T15:47:22;9.50;66.70
1129;DHT22;553;51.038;7.216;2023-04-03T15:49:48;9.50;68.00
1129;DHT22;553;51.038;7.216;2023-04-03T15:52:15;9.50;67.30
1129;DHT22;553;51.038;7.216;2023-04-03T15:54:42;9.30;67.00
1129;DHT22;553;51.038;7.216;2023-04-03T15:57:09;9.20;67.40
1129;DHT22;553;51.038;7.216;2023-04-03T15:59:36;9.20;67.60
1129;DHT22;553;51.038;7.216;2023-04-03T16:02:04;9.20;67.60
1129;DHT22;553;51.038;7.216;2023-04-03T16:04:33;9.30;67.70
1129;DHT22;553;51.038;7.216;2023-04-03T16:07:04;9.20;67.50
1129;DHT22;553;51.038;7.216;2023-04-03T16:09:32;9.20;66.70
1129;DHT22;553;51.038;7.216;2023-04-03T16:12:00;9.10;67.60
1129;DHT22;553;51.038;7.216;2023-04-03T16:14:27;9.10;67.90
1129;DHT22;553;51.038;7.216;2023-04-03T16:16:55;9.00;67.80
1129;DHT22;553;51.038;7.216;2023-04-03T16:19:22;9.00;67.90
1129;DHT22;553;51.038;7.216;2023-04-03T16:21:53;9.10;68.40
1129;DHT22;553;51.038;7.216;2023-04-03T16:24:20;9.10;67.90
1129;DHT22;553;51.038;7.216;2023-04-03T16:26:47;9.10;67.30
1129;DHT22;553;51.038;7.216;2023-04-03T16:29:13;8.90;66.90
1129;DHT22;553;51.038;7.216;2023-04-03T16:31:40;8.80;68.30
1129;DHT22;553;51.038;7.216;2023-04-03T16:34:07;8.80;68.30
1129;DHT22;553;51.038;7.216;2023-04-03T16:36:34;8.80;67.60
1129;DHT22;553;51.038;7.216;2023-04-03T16:39:01;8.80;67.90
1129;DHT22;553;51.038;7.216;2023-04-03T16:41:28;8.90;67.50
1129;DHT22;553;51.038;7.216;2023-04-03T16:43:55;8.70;67.70
1129;DHT22;553;51.038;7.216;2023-04-03T16:46:21;8.70;67.20
1129;DHT22;553;51.038;7.216;2023-04-03T16:48:48;8.60;67.80
1129;DHT22;553;51.038;7.216;2023-04-03T16:51:15;8.50;67.10
1129;DHT22;553;51.038;7.216;2023-04-03T16:53:43;8.40;67.50
1129;DHT22;553;51.038;7.216;2023-04-03T16:56:09;8.40;68.10
1129;DHT22;553;51.038;7.216;2023-04-03T16:58:37;8.30;67.90
1129;DHT22;553;51.038;7.216;2023-04-03T17:01:14;8.40;67.90
1129;DHT22;553;51.038;7.216;2023-04-03T17:03:42;8.50;68.20
1129;DHT22;553;51.038;7.216;2023-04-03T17:06:11;8.50;68.40
1129;DHT22;553;51.038;7.216;2023-04-03T17:08:44;8.50;68.10
1129;DHT22;553;51.038;7.216;2023-04-03T17:11:25;8.60;67.90
1129;DHT22;553;51.038;7.216;2023-04-03T17:13:52;8.50;67.20
1129;DHT22;553;51.038;7.216;2023-04-03T17:16:19;8.40;67.70
1129;DHT22;553;51.038;7.216;2023-04-03T17:18:46;8.40;68.20
1129;DHT22;553;51.038;7.216;2023-04-03T17:21:14;8.40;67.60
1129;DHT22;553;51.038;7.216;2023-04-03T17:23:43;8.90;77.90
1129;DHT22;553;51.038;7.216;2023-04-03T17:26:10;10.00;68.30
1129;DHT22;553;51.038;7.216;2023-04-03T17:28:37;9.30;65.90
1129;DHT22;553;51.038;7.216;2023-04-03T17:31:06;8.80;67.00
1129;DHT22;553;51.038;7.216;2023-04-03T17:33:33;8.40;68.30
1129;DHT22;553;51.038;7.216;2023-04-03T17:36:01;8.20;69.30
1129;DHT22;553;51.038;7.216;2023-04-03T17:38:30;8.10;69.90
1129;DHT22;553;51.038;7.216;2023-04-03T17:40:58;8.00;71.30
1129;DHT22;553;51.038;7.216;2023-04-03T17:43:26;8.00;70.50
1129;DHT22;553;51.038;7.216;2023-04-03T17:45:59;7.90;70.80
1129;DHT22;553;51.038;7.216;2023-04-03T17:48:30;7.90;71.20
1129;DHT22;553;51.038;7.216;2023-04-03T17:50:58;7.80;71.10
1129;DHT22;553;51.038;7.216;2023-04-03T17:53:25;7.60;70.40
1129;DHT22;553;51.038;7.216;2023-04-03T17:55:53;7.50;70.90
1129;DHT22;553;51.038;7.216;2023-04-03T17:58:19;7.50;71.40
1129;DHT22;553;51.038;7.216;2023-04-03T18:00:46;7.40;71.10
1129;DHT22;553;51.038;7.216;2023-04-03T18:03:13;7.40;71.50
1129;DHT22;553;51.038;7.216;2023-04-03T18:05:40;7.30;71.40
1129;DHT22;553;51.038;7.216;2023-04-03T18:08:07;7.30;71.40
1129;DHT22;553;51.038;7.216;2023-04-03T18:10:37;7.30;71.40
1129;DHT22;553;51.038;7.216;2023-04-03T18:13:06;7.20;72.00
1129;DHT22;553;51.038;7.216;2023-04-03T18:15:33;7.20;71.80
1129;DHT22;553;51.038;7.216;2023-04-03T18:18:00;7.10;71.50
1129;DHT22;553;51.038;7.216;2023-04-03T18:20:27;7.00;71.90
1129;DHT22;553;51.038;7.216;2023-04-03T18:22:53;7.00;71.50
1129;DHT22;553;51.038;7.216;2023-04-03T18:25:20;7.00;71.80
1129;DHT22;553;51.038;7.216;2023-04-03T18:27:47;7.10;72.10